sensor_id;sensor_type;location;lat;lon;timestamp;P1;durP1;ratioP1;P2;durP2;ratioP2
17761;SDS011;9005;48.838;10.112;2023-12-20T00:02:03;1.45;;;1.02;;
17761;SDS011;9005;48.838;10.112;2023-12-20T00:04:30;1.30;;;0.90;;
17761;SDS011;9005;48.838;10.112;2023-12-20T00:06:57;1.05;;;0.70;;
17761;SDS011;9005;48.838;10.112;2023-12-20T00:09:23;3.45;;;1.00;;
17761;SDS011;9005;48.838;10.112;2023-12-20T00:11:51;1.50;;;0.95;;
17761;SDS011;9005;48.838;10.112;2023-12-20T00:14:18;2.90;;;0.88;;
17761;SDS011;9005;48.838;10.112;2023-12-20T00:16:45;1.70;;;1.08;;
17761;SDS011;9005;48.838;10.112;2023-12-20T00:19:13;1.58;;;1.10;;
17761;SDS011;9005;48.838;10.112;2023-12-20T00:21:39;2.05;;;1.10;;
17761;SDS011;9005;48.838;10.112;2023-12-20T00:24:06;1.17;;;1.00;;
17761;SDS011;9005;48.838;10.112;2023-12-20T00:26:33;1.10;;;0.80;;
17761;SDS011;9005;48.838;10.112;2023-12-20T00:29:01;0.93;;;0.77;;
17761;SDS011;9005;48.838;10.112;2023-12-20T00:31:28;1.67;;;0.98;;
17761;SDS011;9005;48.838;10.112;2023-12-20T00:33:54;1.13;;;0.82;;
17761;SDS011;9005;48.838;10.112;2023-12-20T00:36:21;1.05;;;0.60;;
17761;SDS011;9005;48.838;10.112;2023-12-20T00:38:48;1.27;;;0.95;;
17761;SDS011;9005;48.838;10.112;2023-12-20T00:41:16;1.13;;;0.60;;
17761;SDS011;9005;48.838;10.112;2023-12-20T00:43:43;0.85;;;0.80;;
17761;SDS011;9005;48.838;10.112;2023-12-20T00:46:11;1.08;;;0.80;;
17761;SDS011;9005;48.838;10.112;2023-12-20T00:48:38;1.55;;;0.93;;
17761;SDS011;9005;48.838;10.112;2023-12-20T00:51:07;1.13;;;0.90;;
17761;SDS011;9005;48.838;10.112;2023-12-20T00:53:33;0.60;;;0.60;;
17761;SDS011;9005;48.838;10.112;2023-12-20T00:56:00;5.85;;;0.93;;
17761;SDS011;9005;48.838;10.112;2023-12-20T00:58:27;1.38;;;0.77;;
17761;SDS011;9005;48.838;10.112;2023-12-20T01:00:54;1.08;;;0.88;;
17761;SDS011;9005;48.838;10.112;2023-12-20T01:03:22;1.10;;;0.70;;
17761;SDS011;9005;48.838;10.112;2023-12-20T01:05:48;0.68;;;0.60;;
17761;SDS011;9005;48.838;10.112;2023-12-20T01:08:15;0.90;;;0.65;;
17761;SDS011;9005;48.838;10.112;2023-12-20T01:10:42;1.13;;;0.77;;
17761;SDS011;9005;48.838;10.112;2023-12-20T01:13:09;0.75;;;0.68;;
17761;SDS011;9005;48.838;10.112;2023-12-20T01:15:35;0.63;;;0.52;;
17761;SDS011;9005;48.838;10.112;2023-12-20T01:18:02;0.60;;;0.50;;
17761;SDS011;9005;48.838;10.112;2023-12-20T01:20:31;0.77;;;0.50;;
17761;SDS011;9005;48.838;10.112;2023-12-20T01:22:57;3.80;;;0.80;;
17761;SDS011;9005;48.838;10.112;2023-12-20T01:25:24;1.23;;;0.70;;
17761;SDS011;9005;48.838;10.112;2023-12-20T01:27:51;0.98;;;0.75;;
17761;SDS011;9005;48.838;10.112;2023-12-20T01:30:17;1.35;;;0.68;;
17761;SDS011;9005;48.838;10.112;2023-12-20T01:32:44;1.05;;;0.70;;
17761;SDS011;9005;48.838;10.112;2023-12-20T01:35:11;1.02;;;0.93;;
17761;SDS011;9005;48.838;10.112;2023-12-20T01:37:39;1.00;;;0.70;;
17761;SDS011;9005;48.838;10.112;2023-12-20T01:40:06;0.60;;;0.60;;
17761;SDS011;9005;48.838;10.112;2023-12-20T01:42:34;1.65;;;0.80;;
17761;SDS011;9005;48.838;10.112;2023-12-20T01:45:00;0.82;;;0.50;;
17761;SDS011;9005;48.838;10.112;2023-12-20T01:47:27;1.75;;;0.60;;
17761;SDS011;9005;48.838;10.112;2023-12-20T01:49:54;0.50;;;0.50;;
17761;SDS011;9005;48.838;10.112;2023-12-20T01:52:22;2.15;;;0.77;;
17761;SDS011;9005;48.838;10.112;2023-12-20T01:54:50;0.63;;;0.60;;
17761;SDS011;9005;48.838;10.112;2023-12-20T01:57:19;1.55;;;0.80;;
17761;SDS011;9005;48.838;10.112;2023-12-20T01:59:46;0.98;;;0.60;;
17761;SDS011;9005;48.838;10.112;2023-12-20T02:02:13;0.90;;;0.70;;
17761;SDS011;9005;48.838;10.112;2023-12-20T02:04:40;1.15;;;0.47;;
17761;SDS011;9005;48.838;10.112;2023-12-20T02:07:08;0.95;;;0.63;;
17761;SDS011;9005;48.838;10.112;2023-12-20T02:09:36;0.70;;;0.40;;
17761;SDS011;9005;48.838;10.112;2023-12-20T02:12:04;0.57;;;0.57;;
17761;SDS011;9005;48.838;10.112;2023-12-20T02:14:32;0.43;;;0.40;;
17761;SDS011;9005;48.838;10.112;2023-12-20T02:16:58;1.13;;;0.63;;
17761;SDS011;9005;48.838;10.112;2023-12-20T02:19:25;0.50;;;0.50;;
17761;SDS011;9005;48.838;10.112;2023-12-20T02:22:05;0.60;;;0.60;;
17761;SDS011;9005;48.838;10.112;2023-12-20T02:24:32;1.48;;;0.93;;
17761;SDS011;9005;48.838;10.112;2023-12-20T02:26:59;0.60;;;0.60;;
17761;SDS011;9005;48.838;10.112;2023-12-20T02:29:25;1.40;;;0.80;;
17761;SDS011;9005;48.838;10.112;2023-12-20T02:31:52;2.60;;;0.65;;
17761;SDS011;9005;48.838;10.112;2023-12-20T02:34:19;0.63;;;0.52;;
17761;SDS011;9005;48.838;10.112;2023-12-20T02:36:46;3.83;;;0.90;;
17761;SDS011;9005;48.838;10.112;2023-12-20T02:39:14;0.30;;;0.30;;
17761;SDS011;9005;48.838;10.112;2023-12-20T02:41:41;1.73;;;0.60;;
17761;SDS011;9005;48.838;10.112;2023-12-20T02:44:07;0.60;;;0.60;;
17761;SDS011;9005;48.838;10.112;2023-12-20T02:46:34;2.80;;;0.82;;
17761;SDS011;9005;48.838;10.112;2023-12-20T02:49:01;1.00;;;0.50;;
17761;SDS011;9005;48.838;10.112;2023-12-20T02:51:27;0.75;;;0.68;;
17761;SDS011;9005;48.838;10.112;2023-12-20T02:53:54;0.90;;;0.90;;
17761;SDS011;9005;48.838;10.112;2023-12-20T02:56:22;1.02;;;0.60;;
17761;SDS011;9005;48.838;10.112;2023-12-20T02:58:49;0.80;;;0.70;;
17761;SDS011;9005;48.838;10.112;2023-12-20T03:01:16;0.85;;;0.50;;
17761;SDS011;9005;48.838;10.112;2023-12-20T03:03:42;0.22;;;0.22;;
17761;SDS011;9005;48.838;10.112;2023-12-20T03:06:09;0.35;;;0.30;;
17761;SDS011;9005;48.838;10.112;2023-12-20T03:08:36;0.35;;;0.35;;
17761;SDS011;9005;48.838;10.112;2023-12-20T03:11:03;0.73;;;0.60;;
17761;SDS011;9005;48.838;10.112;2023-12-20T03:13:31;1.35;;;0.55;;
17761;SDS011;9005;48.838;10.112;2023-12-20T03:15:58;1.85;;;1.08;;
17761;SDS011;9005;48.838;10.112;2023-12-20T03:18:25;1.33;;;0.85;;
17761;SDS011;9005;48.838;10.112;2023-12-20T03:20:53;1.85;;;0.77;;
17761;SDS011;9005;48.838;10.112;2023-12-20T03:23:19;1.70;;;0.73;;
17761;SDS011;9005;48.838;10.112;2023-12-20T03:25:46;0.38;;;0.38;;
17761;SDS011;9005;48.838;10.112;2023-12-20T03:28:14;0.80;;;0.43;;
17761;SDS011;9005;48.838;10.112;2023-12-20T03:30:43;0.43;;;0.40;;
17761;SDS011;9005;48.838;10.112;2023-12-20T03:33:09;0.43;;;0.40;;
17761;SDS011;9005;48.838;10.112;2023-12-20T03:35:36;0.82;;;0.30;;
17761;SDS011;9005;48.838;10.112;2023-12-20T03:38:03;0.68;;;0.40;;
17761;SDS011;9005;48.838;10.112;2023-12-20T03:40:30;0.45;;;0.38;;
17761;SDS011;9005;48.838;10.112;2023-12-20T03:42:56;0.38;;;0.30;;
17761;SDS011;9005;48.838;10.112;2023-12-20T03:45:23;2.10;;;0.32;;
17761;SDS011;9005;48.838;10.112;2023-12-20T03:47:51;0.32;;;0.32;;
17761;SDS011;9005;48.838;10.112;2023-12-20T03:50:20;1.75;;;0.50;;
17761;SDS011;9005;48.838;10.112;2023-12-20T03:52:47;0.25;;;0.25;;
17761;SDS011;9005;48.838;10.112;2023-12-20T03:55:13;0.30;;;0.30;;
17761;SDS011;9005;48.838;10.112;2023-12-20T03:57:41;0.73;;;0.40;;
17761;SDS011;9005;48.838;10.112;2023-12-20T04:00:08;0.40;;;0.40;;
17761;SDS011;9005;48.838;10.112;2023-12-20T04:02:36;0.30;;;0.30;;
17761;SDS011;9005;48.838;10.112;2023-12-20T04:05:04;0.68;;;0.68;;
17761;SDS011;9005;48.838;10.112;2023-12-20T04:07:31;0.70;;;0.70;;
17761;SDS011;9005;48.838;10.112;2023-12-20T04:09:59;1.45;;;0.60;;
17761;SDS011;9005;48.838;10.112;2023-12-20T04:12:26;0.20;;;0.20;;
17761;SDS011;9005;48.838;10.112;2023-12-20T04:14:53;7.28;;;0.63;;
17761;SDS011;9005;48.838;10.112;2023-12-20T04:17:20;0.25;;;0.20;;
17761;SDS011;9005;48.838;10.112;2023-12-20T04:19:47;0.60;;;0.40;;
17761;SDS011;9005;48.838;10.112;2023-12-20T04:22:15;0.57;;;0.55;;
17761;SDS011;9005;48.838;10.112;2023-12-20T04:24:43;0.93;;;0.30;;
17761;SDS011;9005;48.838;10.112;2023-12-20T04:27:09;0.50;;;0.40;;
17761;SDS011;9005;48.838;10.112;2023-12-20T04:29:36;0.93;;;0.60;;
17761;SDS011;9005;48.838;10.112;2023-12-20T04:32:03;0.65;;;0.65;;
17761;SDS011;9005;48.838;10.112;2023-12-20T04:34:30;0.38;;;0.38;;
17761;SDS011;9005;48.838;10.112;2023-12-20T04:36:57;8.27;;;0.47;;
17761;SDS011;9005;48.838;10.112;2023-12-20T04:39:25;0.52;;;0.38;;
17761;SDS011;9005;48.838;10.112;2023-12-20T04:41:52;0.30;;;0.30;;
17761;SDS011;9005;48.838;10.112;2023-12-20T04:44:19;0.57;;;0.52;;
17761;SDS011;9005;48.838;10.112;2023-12-20T04:46:45;0.55;;;0.40;;
17761;SDS011;9005;48.838;10.112;2023-12-20T04:49:12;0.30;;;0.30;;
17761;SDS011;9005;48.838;10.112;2023-12-20T04:51:39;0.50;;;0.40;;
17761;SDS011;9005;48.838;10.112;2023-12-20T04:54:06;2.22;;;0.45;;
17761;SDS011;9005;48.838;10.112;2023-12-20T04:56:34;0.20;;;0.20;;
17761;SDS011;9005;48.838;10.112;2023-12-20T04:59:00;0.30;;;0.30;;
17761;SDS011;9005;48.838;10.112;2023-12-20T05:01:27;0.80;;;0.52;;
17761;SDS011;9005;48.838;10.112;2023-12-20T05:03:54;0.67;;;0.67;;
17761;SDS011;9005;48.838;10.112;2023-12-20T05:06:20;0.50;;;0.50;;
17761;SDS011;9005;48.838;10.112;2023-12-20T05:08:47;0.28;;;0.25;;
17761;SDS011;9005;48.838;10.112;2023-12-20T05:11:14;0.57;;;0.30;;
17761;SDS011;9005;48.838;10.112;2023-12-20T05:13:42;6.22;;;0.32;;
17761;SDS011;9005;48.838;10.112;2023-12-20T05:16:09;0.20;;;0.20;;
17761;SDS011;9005;48.838;10.112;2023-12-20T05:18:36;0.25;;;0.25;;
17761;SDS011;9005;48.838;10.112;2023-12-20T05:21:02;0.20;;;0.20;;
17761;SDS011;9005;48.838;10.112;2023-12-20T05:23:29;0.57;;;0.30;;
17761;SDS011;9005;48.838;10.112;2023-12-20T05:25:56;0.38;;;0.22;;
17761;SDS011;9005;48.838;10.112;2023-12-20T05:28:24;0.30;;;0.25;;
17761;SDS011;9005;48.838;10.112;2023-12-20T05:30:52;0.35;;;0.35;;
17761;SDS011;9005;48.838;10.112;2023-12-20T05:33:19;1.15;;;0.65;;
17761;SDS011;9005;48.838;10.112;2023-12-20T05:35:45;0.57;;;0.25;;
17761;SDS011;9005;48.838;10.112;2023-12-20T05:38:12;0.30;;;0.30;;
17761;SDS011;9005;48.838;10.112;2023-12-20T05:40:39;0.30;;;0.30;;
17761;SDS011;9005;48.838;10.112;2023-12-20T05:43:06;0.65;;;0.30;;
17761;SDS011;9005;48.838;10.112;2023-12-20T05:45:32;0.75;;;0.30;;
17761;SDS011;9005;48.838;10.112;2023-12-20T05:48:00;0.22;;;0.22;;
17761;SDS011;9005;48.838;10.112;2023-12-20T05:50:27;0.35;;;0.30;;
17761;SDS011;9005;48.838;10.112;2023-12-20T05:52:54;0.35;;;0.22;;
17761;SDS011;9005;48.838;10.112;2023-12-20T05:55:21;0.20;;;0.20;;
17761;SDS011;9005;48.838;10.112;2023-12-20T05:57:48;0.40;;;0.30;;
17761;SDS011;9005;48.838;10.112;2023-12-20T06:00:15;0.30;;;0.30;;
17761;SDS011;9005;48.838;10.112;2023-12-20T06:02:42;0.20;;;0.20;;
17761;SDS011;9005;48.838;10.112;2023-12-20T06:05:11;0.20;;;0.20;;
17761;SDS011;9005;48.838;10.112;2023-12-20T06:07:38;0.30;;;0.30;;
17761;SDS011;9005;48.838;10.112;2023-12-20T06:10:05;0.52;;;0.20;;
17761;SDS011;9005;48.838;10.112;2023-12-20T06:12:32;0.20;;;0.20;;
17761;SDS011;9005;48.838;10.112;2023-12-20T06:15:00;0.20;;;0.20;;
17761;SDS011;9005;48.838;10.112;2023-12-20T06:17:27;0.20;;;0.20;;
17761;SDS011;9005;48.838;10.112;2023-12-20T06:19:55;0.32;;;0.32;;
17761;SDS011;9005;48.838;10.112;2023-12-20T06:22:23;0.30;;;0.30;;
17761;SDS011;9005;48.838;10.112;2023-12-20T06:24:50;0.13;;;0.13;;
17761;SDS011;9005;48.838;10.112;2023-12-20T06:27:17;0.30;;;0.30;;
17761;SDS011;9005;48.838;10.112;2023-12-20T06:29:43;0.50;;;0.40;;
17761;SDS011;9005;48.838;10.112;2023-12-20T06:32:10;0.30;;;0.30;;
17761;SDS011;9005;48.838;10.112;2023-12-20T06:34:37;0.32;;;0.32;;
17761;SDS011;9005;48.838;10.112;2023-12-20T06:37:04;0.43;;;0.30;;
17761;SDS011;9005;48.838;10.112;2023-12-20T06:39:32;0.85;;;0.20;;
17761;SDS011;9005;48.838;10.112;2023-12-20T06:41:59;0.20;;;0.20;;
17761;SDS011;9005;48.838;10.112;2023-12-20T06:44:26;0.25;;;0.25;;
17761;SDS011;9005;48.838;10.112;2023-12-20T06:46:53;1.75;;;0.30;;
17761;SDS011;9005;48.838;10.112;2023-12-20T06:49:20;0.30;;;0.30;;
17761;SDS011;9005;48.838;10.112;2023-12-20T06:51:46;0.20;;;0.20;;
17761;SDS011;9005;48.838;10.112;2023-12-20T06:54:13;0.20;;;0.20;;
17761;SDS011;9005;48.838;10.112;2023-12-20T06:56:42;0.30;;;0.30;;
17761;SDS011;9005;48.838;10.112;2023-12-20T06:59:08;0.57;;;0.30;;
17761;SDS011;9005;48.838;10.112;2023-12-20T07:01:35;2.35;;;1.25;;
17761;SDS011;9005;48.838;10.112;2023-12-20T07:04:03;0.28;;;0.28;;
17761;SDS011;9005;48.838;10.112;2023-12-20T07:06:29;0.20;;;0.20;;
17761;SDS011;9005;48.838;10.112;2023-12-20T07:08:56;0.30;;;0.30;;
17761;SDS011;9005;48.838;10.112;2023-12-20T07:11:23;0.30;;;0.30;;
17761;SDS011;9005;48.838;10.112;2023-12-20T07:13:52;0.25;;;0.25;;
17761;SDS011;9005;48.838;10.112;2023-12-20T07:16:18;0.30;;;0.30;;
17761;SDS011;9005;48.838;10.112;2023-12-20T07:18:45;0.50;;;0.50;;
17761;SDS011;9005;48.838;10.112;2023-12-20T07:21:12;0.30;;;0.30;;
17761;SDS011;9005;48.838;10.112;2023-12-20T07:23:38;0.20;;;0.20;;
17761;SDS011;9005;48.838;10.112;2023-12-20T07:26:05;0.20;;;0.20;;
17761;SDS011;9005;48.838;10.112;2023-12-20T07:28:32;0.77;;;0.20;;
17761;SDS011;9005;48.838;10.112;2023-12-20T07:31:00;0.28;;;0.28;;
17761;SDS011;9005;48.838;10.112;2023-12-20T07:33:27;0.85;;;0.45;;
17761;SDS011;9005;48.838;10.112;2023-12-20T07:35:53;2.65;;;1.27;;
17761;SDS011;9005;48.838;10.112;2023-12-20T07:38:20;0.30;;;0.30;;
17761;SDS011;9005;48.838;10.112;2023-12-20T07:40:47;0.60;;;0.50;;
17761;SDS011;9005;48.838;10.112;2023-12-20T07:43:13;0.55;;;0.45;;
17761;SDS011;9005;48.838;10.112;2023-12-20T07:45:40;0.75;;;0.40;;
17761;SDS011;9005;48.838;10.112;2023-12-20T07:48:08;0.40;;;0.40;;
17761;SDS011;9005;48.838;10.112;2023-12-20T07:50:35;0.30;;;0.30;;
17761;SDS011;9005;48.838;10.112;2023-12-20T07:53:02;1.13;;;0.70;;
17761;SDS011;9005;48.838;10.112;2023-12-20T07:55:29;0.55;;;0.45;;
17761;SDS011;9005;48.838;10.112;2023-12-20T07:57:56;0.52;;;0.40;;
17761;SDS011;9005;48.838;10.112;2023-12-20T08:00:23;0.40;;;0.40;;
17761;SDS011;9005;48.838;10.112;2023-12-20T08:02:50;0.52;;;0.50;;
17761;SDS011;9005;48.838;10.112;2023-12-20T08:05:18;1.00;;;0.55;;
17761;SDS011;9005;48.838;10.112;2023-12-20T08:07:44;0.50;;;0.50;;
17761;SDS011;9005;48.838;10.112;2023-12-20T08:10:11;0.47;;;0.40;;
17761;SDS011;9005;48.838;10.112;2023-12-20T08:12:38;0.40;;;0.40;;
17761;SDS011;9005;48.838;10.112;2023-12-20T08:15:06;0.52;;;0.50;;
17761;SDS011;9005;48.838;10.112;2023-12-20T08:17:33;0.40;;;0.40;;
17761;SDS011;9005;48.838;10.112;2023-12-20T08:20:00;0.82;;;0.50;;
17761;SDS011;9005;48.838;10.112;2023-12-20T08:22:28;0.40;;;0.40;;
17761;SDS011;9005;48.838;10.112;2023-12-20T08:24:54;0.30;;;0.30;;
17761;SDS011;9005;48.838;10.112;2023-12-20T08:27:21;1.23;;;0.50;;
17761;SDS011;9005;48.838;10.112;2023-12-20T08:29:48;0.40;;;0.40;;
17761;SDS011;9005;48.838;10.112;2023-12-20T08:32:15;0.68;;;0.50;;
17761;SDS011;9005;48.838;10.112;2023-12-20T08:34:42;0.88;;;0.50;;
17761;SDS011;9005;48.838;10.112;2023-12-20T08:37:09;0.40;;;0.40;;
17761;SDS011;9005;48.838;10.112;2023-12-20T08:39:37;0.30;;;0.30;;
17761;SDS011;9005;48.838;10.112;2023-12-20T08:42:04;0.60;;;0.60;;
17761;SDS011;9005;48.838;10.112;2023-12-20T08:44:31;0.55;;;0.50;;
17761;SDS011;9005;48.838;10.112;2023-12-20T08:46:57;0.73;;;0.60;;
17761;SDS011;9005;48.838;10.112;2023-12-20T08:49:24;0.60;;;0.60;;
17761;SDS011;9005;48.838;10.112;2023-12-20T08:51:51;0.43;;;0.43;;
17761;SDS011;9005;48.838;10.112;2023-12-20T08:54:18;1.00;;;0.40;;
17761;SDS011;9005;48.838;10.112;2023-12-20T08:56:46;0.40;;;0.40;;
17761;SDS011;9005;48.838;10.112;2023-12-20T08:59:13;0.77;;;0.40;;
17761;SDS011;9005;48.838;10.112;2023-12-20T09:01:39;1.80;;;0.82;;
17761;SDS011;9005;48.838;10.112;2023-12-20T09:04:06;0.60;;;0.60;;
17761;SDS011;9005;48.838;10.112;2023-12-20T09:06:33;0.50;;;0.50;;
17761;SDS011;9005;48.838;10.112;2023-12-20T09:08:59;0.40;;;0.40;;
17761;SDS011;9005;48.838;10.112;2023-12-20T09:11:26;0.47;;;0.47;;
17761;SDS011;9005;48.838;10.112;2023-12-20T09:13:54;0.65;;;0.60;;
17761;SDS011;9005;48.838;10.112;2023-12-20T09:16:21;0.55;;;0.55;;
17761;SDS011;9005;48.838;10.112;2023-12-20T09:18:48;0.68;;;0.60;;
17761;SDS011;9005;48.838;10.112;2023-12-20T09:21:15;0.60;;;0.60;;
17761;SDS011;9005;48.838;10.112;2023-12-20T09:23:42;0.47;;;0.47;;
17761;SDS011;9005;48.838;10.112;2023-12-20T09:26:08;0.52;;;0.52;;
17761;SDS011;9005;48.838;10.112;2023-12-20T09:28:35;0.80;;;0.80;;
17761;SDS011;9005;48.838;10.112;2023-12-20T09:31:04;0.70;;;0.70;;
17761;SDS011;9005;48.838;10.112;2023-12-20T09:33:31;0.65;;;0.65;;
17761;SDS011;9005;48.838;10.112;2023-12-20T09:35:58;0.50;;;0.50;;
17761;SDS011;9005;48.838;10.112;2023-12-20T09:38:25;1.15;;;0.57;;
17761;SDS011;9005;48.838;10.112;2023-12-20T09:40:52;0.80;;;0.80;;
17761;SDS011;9005;48.838;10.112;2023-12-20T09:43:19;0.60;;;0.60;;
17761;SDS011;9005;48.838;10.112;2023-12-20T09:45:49;2.30;;;0.60;;
17761;SDS011;9005;48.838;10.112;2023-12-20T09:48:21;0.75;;;0.70;;
17761;SDS011;9005;48.838;10.112;2023-12-20T09:50:48;0.68;;;0.68;;
17761;SDS011;9005;48.838;10.112;2023-12-20T09:53:15;0.80;;;0.70;;
17761;SDS011;9005;48.838;10.112;2023-12-20T09:55:43;0.70;;;0.70;;
17761;SDS011;9005;48.838;10.112;2023-12-20T09:58:10;0.63;;;0.63;;
17761;SDS011;9005;48.838;10.112;2023-12-20T10:00:37;0.77;;;0.68;;
17761;SDS011;9005;48.838;10.112;2023-12-20T10:03:04;0.90;;;0.45;;
17761;SDS011;9005;48.838;10.112;2023-12-20T10:05:34;5.68;;;1.80;;
17761;SDS011;9005;48.838;10.112;2023-12-20T10:08:01;0.43;;;0.43;;
17761;SDS011;9005;48.838;10.112;2023-12-20T10:10:28;1.60;;;0.70;;
17761;SDS011;9005;48.838;10.112;2023-12-20T10:13:01;0.50;;;0.50;;
17761;SDS011;9005;48.838;10.112;2023-12-20T10:15:28;1.63;;;0.75;;
17761;SDS011;9005;48.838;10.112;2023-12-20T10:17:55;1.25;;;0.70;;
17761;SDS011;9005;48.838;10.112;2023-12-20T10:20:22;0.90;;;0.60;;
17761;SDS011;9005;48.838;10.112;2023-12-20T10:22:51;1.25;;;0.88;;
17761;SDS011;9005;48.838;10.112;2023-12-20T10:25:19;0.93;;;0.70;;
17761;SDS011;9005;48.838;10.112;2023-12-20T10:27:46;1.58;;;1.08;;
17761;SDS011;9005;48.838;10.112;2023-12-20T10:30:13;0.70;;;0.60;;
17761;SDS011;9005;48.838;10.112;2023-12-20T10:32:40;1.40;;;0.90;;
17761;SDS011;9005;48.838;10.112;2023-12-20T10:35:08;2.25;;;0.95;;
17761;SDS011;9005;48.838;10.112;2023-12-20T10:37:35;1.80;;;0.77;;
17761;SDS011;9005;48.838;10.112;2023-12-20T10:40:04;0.95;;;0.80;;
17761;SDS011;9005;48.838;10.112;2023-12-20T10:42:32;1.25;;;0.80;;
17761;SDS011;9005;48.838;10.112;2023-12-20T10:44:59;4.22;;;0.73;;
17761;SDS011;9005;48.838;10.112;2023-12-20T10:47:26;1.35;;;0.70;;
17761;SDS011;9005;48.838;10.112;2023-12-20T10:49:57;1.40;;;0.93;;
17761;SDS011;9005;48.838;10.112;2023-12-20T10:52:26;1.67;;;1.05;;
17761;SDS011;9005;48.838;10.112;2023-12-20T10:54:55;1.30;;;0.75;;
17761;SDS011;9005;48.838;10.112;2023-12-20T10:57:23;1.02;;;0.82;;
17761;SDS011;9005;48.838;10.112;2023-12-20T10:59:53;1.83;;;0.90;;
17761;SDS011;9005;48.838;10.112;2023-12-20T11:02:21;1.38;;;0.90;;
17761;SDS011;9005;48.838;10.112;2023-12-20T11:04:50;1.52;;;0.95;;
17761;SDS011;9005;48.838;10.112;2023-12-20T11:07:25;3.17;;;1.25;;
17761;SDS011;9005;48.838;10.112;2023-12-20T11:09:59;2.70;;;1.35;;
17761;SDS011;9005;48.838;10.112;2023-12-20T11:12:35;2.85;;;1.00;;
17761;SDS011;9005;48.838;10.112;2023-12-20T11:15:10;2.05;;;0.90;;
17761;SDS011;9005;48.838;10.112;2023-12-20T11:17:38;3.50;;;1.23;;
17761;SDS011;9005;48.838;10.112;2023-12-20T11:20:13;2.15;;;1.25;;
17761;SDS011;9005;48.838;10.112;2023-12-20T11:22:51;2.33;;;1.10;;
17761;SDS011;9005;48.838;10.112;2023-12-20T11:25:19;2.80;;;0.90;;
17761;SDS011;9005;48.838;10.112;2023-12-20T11:28:06;1.15;;;0.93;;
17761;SDS011;9005;48.838;10.112;2023-12-20T11:30:40;2.25;;;1.35;;
17761;SDS011;9005;48.838;10.112;2023-12-20T11:33:08;1.92;;;1.10;;
17761;SDS011;9005;48.838;10.112;2023-12-20T11:35:34;2.53;;;1.15;;
17761;SDS011;9005;48.838;10.112;2023-12-20T11:38:02;1.02;;;0.68;;
17761;SDS011;9005;48.838;10.112;2023-12-20T11:40:29;2.60;;;1.08;;
17761;SDS011;9005;48.838;10.112;2023-12-20T11:43:02;1.58;;;0.90;;
17761;SDS011;9005;48.838;10.112;2023-12-20T11:45:29;2.78;;;1.25;;
17761;SDS011;9005;48.838;10.112;2023-12-20T11:47:57;2.22;;;0.85;;
17761;SDS011;9005;48.838;10.112;2023-12-20T11:50:24;2.03;;;0.95;;
17761;SDS011;9005;48.838;10.112;2023-12-20T11:52:51;1.48;;;0.90;;
17761;SDS011;9005;48.838;10.112;2023-12-20T11:55:20;1.45;;;0.98;;
17761;SDS011;9005;48.838;10.112;2023-12-20T11:57:47;1.58;;;0.70;;
17761;SDS011;9005;48.838;10.112;2023-12-20T12:00:15;2.47;;;1.25;;
17761;SDS011;9005;48.838;10.112;2023-12-20T12:02:43;1.88;;;1.10;;
17761;SDS011;9005;48.838;10.112;2023-12-20T12:05:21;1.67;;;0.90;;
17761;SDS011;9005;48.838;10.112;2023-12-20T12:07:48;2.63;;;1.25;;
17761;SDS011;9005;48.838;10.112;2023-12-20T12:10:15;1.60;;;0.82;;
17761;SDS011;9005;48.838;10.112;2023-12-20T12:12:41;2.35;;;1.02;;
17761;SDS011;9005;48.838;10.112;2023-12-20T12:15:08;3.38;;;0.82;;
17761;SDS011;9005;48.838;10.112;2023-12-20T12:17:37;1.63;;;0.70;;
17761;SDS011;9005;48.838;10.112;2023-12-20T12:20:04;2.85;;;1.00;;
17761;SDS011;9005;48.838;10.112;2023-12-20T12:22:32;1.58;;;0.98;;
17761;SDS011;9005;48.838;10.112;2023-12-20T12:24:59;2.03;;;1.00;;
17761;SDS011;9005;48.838;10.112;2023-12-20T12:27:35;1.73;;;1.00;;
17761;SDS011;9005;48.838;10.112;2023-12-20T12:30:03;3.67;;;1.25;;
17761;SDS011;9005;48.838;10.112;2023-12-20T12:32:32;1.50;;;0.73;;
17761;SDS011;9005;48.838;10.112;2023-12-20T12:35:02;2.13;;;1.10;;
17761;SDS011;9005;48.838;10.112;2023-12-20T12:37:31;1.55;;;0.80;;
17761;SDS011;9005;48.838;10.112;2023-12-20T12:40:00;2.03;;;0.93;;
17761;SDS011;9005;48.838;10.112;2023-12-20T12:42:27;4.18;;;1.00;;
17761;SDS011;9005;48.838;10.112;2023-12-20T12:44:54;1.38;;;0.80;;
17761;SDS011;9005;48.838;10.112;2023-12-20T12:47:21;2.38;;;1.05;;
17761;SDS011;9005;48.838;10.112;2023-12-20T12:49:49;1.75;;;0.85;;
17761;SDS011;9005;48.838;10.112;2023-12-20T12:52:18;1.30;;;0.85;;
17761;SDS011;9005;48.838;10.112;2023-12-20T12:54:45;2.47;;;0.80;;
17761;SDS011;9005;48.838;10.112;2023-12-20T12:57:13;1.77;;;0.63;;
17761;SDS011;9005;48.838;10.112;2023-12-20T12:59:40;2.28;;;1.48;;
17761;SDS011;9005;48.838;10.112;2023-12-20T13:02:07;2.53;;;1.00;;
17761;SDS011;9005;48.838;10.112;2023-12-20T13:04:34;3.15;;;0.70;;
17761;SDS011;9005;48.838;10.112;2023-12-20T13:07:01;1.38;;;0.82;;
17761;SDS011;9005;48.838;10.112;2023-12-20T13:09:29;1.48;;;0.80;;
17761;SDS011;9005;48.838;10.112;2023-12-20T13:11:55;0.95;;;0.80;;
17761;SDS011;9005;48.838;10.112;2023-12-20T13:14:23;2.60;;;1.23;;
17761;SDS011;9005;48.838;10.112;2023-12-20T13:16:50;2.15;;;0.60;;
17761;SDS011;9005;48.838;10.112;2023-12-20T13:19:17;3.38;;;0.90;;
17761;SDS011;9005;48.838;10.112;2023-12-20T13:21:44;1.73;;;0.93;;
17761;SDS011;9005;48.838;10.112;2023-12-20T13:24:10;3.55;;;1.20;;
17761;SDS011;9005;48.838;10.112;2023-12-20T13:26:38;4.60;;;0.88;;
17761;SDS011;9005;48.838;10.112;2023-12-20T13:29:05;1.65;;;0.80;;
17761;SDS011;9005;48.838;10.112;2023-12-20T13:31:32;2.53;;;0.90;;
17761;SDS011;9005;48.838;10.112;2023-12-20T13:33:58;2.15;;;1.08;;
17761;SDS011;9005;48.838;10.112;2023-12-20T13:36:25;2.35;;;1.10;;
17761;SDS011;9005;48.838;10.112;2023-12-20T13:38:52;1.27;;;0.80;;
17761;SDS011;9005;48.838;10.112;2023-12-20T13:41:19;1.58;;;0.90;;
17761;SDS011;9005;48.838;10.112;2023-12-20T13:43:47;2.58;;;0.82;;
17761;SDS011;9005;48.838;10.112;2023-12-20T13:46:14;1.02;;;0.80;;
17761;SDS011;9005;48.838;10.112;2023-12-20T13:48:41;1.25;;;0.73;;
17761;SDS011;9005;48.838;10.112;2023-12-20T13:51:07;2.70;;;0.80;;
17761;SDS011;9005;48.838;10.112;2023-12-20T13:53:34;1.30;;;0.88;;
17761;SDS011;9005;48.838;10.112;2023-12-20T13:56:01;1.60;;;1.10;;
17761;SDS011;9005;48.838;10.112;2023-12-20T13:58:27;1.45;;;0.70;;
17761;SDS011;9005;48.838;10.112;2023-12-20T14:00:55;1.52;;;0.70;;
17761;SDS011;9005;48.838;10.112;2023-12-20T14:03:23;2.65;;;0.70;;
17761;SDS011;9005;48.838;10.112;2023-12-20T14:05:50;2.47;;;0.98;;
17761;SDS011;9005;48.838;10.112;2023-12-20T14:08:16;1.98;;;1.05;;
17761;SDS011;9005;48.838;10.112;2023-12-20T14:10:43;2.97;;;1.40;;
17761;SDS011;9005;48.838;10.112;2023-12-20T14:13:10;1.00;;;0.80;;
17761;SDS011;9005;48.838;10.112;2023-12-20T14:15:36;1.27;;;0.90;;
17761;SDS011;9005;48.838;10.112;2023-12-20T14:18:05;2.28;;;0.90;;
17761;SDS011;9005;48.838;10.112;2023-12-20T14:20:33;3.65;;;0.77;;
17761;SDS011;9005;48.838;10.112;2023-12-20T14:23:00;1.95;;;0.98;;
17761;SDS011;9005;48.838;10.112;2023-12-20T14:25:27;4.63;;;1.40;;
17761;SDS011;9005;48.838;10.112;2023-12-20T14:27:53;3.28;;;1.15;;
17761;SDS011;9005;48.838;10.112;2023-12-20T14:30:20;1.95;;;1.02;;
17761;SDS011;9005;48.838;10.112;2023-12-20T14:32:47;1.38;;;0.80;;
17761;SDS011;9005;48.838;10.112;2023-12-20T14:35:15;3.60;;;1.25;;
17761;SDS011;9005;48.838;10.112;2023-12-20T14:37:42;0.80;;;0.52;;
17761;SDS011;9005;48.838;10.112;2023-12-20T14:40:10;2.85;;;1.17;;
17761;SDS011;9005;48.838;10.112;2023-12-20T14:42:41;5.38;;;1.48;;
17761;SDS011;9005;48.838;10.112;2023-12-20T14:45:08;2.10;;;1.08;;
17761;SDS011;9005;48.838;10.112;2023-12-20T14:47:35;1.48;;;0.80;;
17761;SDS011;9005;48.838;10.112;2023-12-20T14:50:02;2.22;;;0.90;;